Time;durP1;ratioP1;P1;durP2;ratioP2;P2;SDS_P1;SDS_P2;PMS_P1;PMS_P2;Temp;Humidity;BMP_temperature;BMP_pressure;BME280_temperature;BME280_humidity;BME280_pressure;Samples;Min_cycle;Max_cycle;Signal;HPM_P1;HPM_P2
2021/12/30 00:00:24;;;;;;;21.87;16.33;;;;;;;8.40;88.59;100178.16;5079408;28;20172;-66
2021/12/30 00:02:49;;;;;;;24.13;16.70;;;;;;;8.43;89.24;100190.31;5079392;28;20168;-67
2021/12/30 00:05:15;;;;;;;22.63;16.67;;;;;;;8.30;89.49;100183.25;5078793;28;20687;-66
2021/12/30 00:07:42;;;;;;;25.47;17.87;;;;;;;8.33;88.81;100181.53;5079336;28;20188;-67
2021/12/30 00:10:08;;;;;;;19.50;15.83;;;;;;;8.61;87.89;100175.78;5079314;28;20173;-66
2021/12/30 00:12:33;;;;;;;23.27;17.10;;;;;;;8.21;89.08;100181.41;5079448;28;20404;-67
2021/12/30 00:14:59;;;;;;;24.97;17.93;;;;;;;8.27;89.38;100191.88;5079114;28;20546;-68
2021/12/30 00:17:24;;;;;;;27.70;18.10;;;;;;;8.13;90.64;100199.50;5078938;28;20169;-66
2021/12/30 00:19:49;;;;;;;25.20;17.60;;;;;;;8.30;89.40;100201.41;5079761;28;20179;-66
2021/12/30 00:22:15;;;;;;;28.93;19.13;;;;;;;8.43;89.44;100203.28;5078886;28;20173;-67
2021/12/30 00:24:40;;;;;;;29.43;19.80;;;;;;;8.12;90.72;100205.56;5078760;28;20196;-66
2021/12/30 00:27:05;;;;;;;31.67;20.00;;;;;;;8.01;90.69;100214.94;5079656;28;20170;-66
2021/12/30 00:29:31;;;;;;;34.00;20.60;;;;;;;8.26;90.66;100216.09;5078927;28;20244;-67
2021/12/30 00:31:56;;;;;;;35.27;21.57;;;;;;;8.21;90.51;100228.16;5078829;28;20576;-65
2021/12/30 00:34:21;;;;;;;32.50;20.93;;;;;;;8.07;90.73;100220.22;5078166;28;20189;-66
2021/12/30 00:36:47;;;;;;;33.07;20.60;;;;;;;8.29;90.92;100215.25;5078659;28;20183;-67
2021/12/30 00:39:12;;;;;;;36.27;22.70;;;;;;;8.09;91.72;100221.09;5078628;28;20164;-66
2021/12/30 00:41:37;;;;;;;36.53;22.30;;;;;;;8.31;91.19;100218.72;5079106;28;20173;-66
2021/12/30 00:44:03;;;;;;;36.60;22.57;;;;;;;8.20;91.13;100216.00;5078451;28;20205;-67
2021/12/30 00:46:28;;;;;;;42.03;24.10;;;;;;;8.37;90.28;100217.06;5078529;28;20173;-66
2021/12/30 00:48:54;;;;;;;44.10;24.23;;;;;;;8.21;91.43;100222.94;5078908;28;20184;-67
2021/12/30 00:51:19;;;;;;;46.43;24.70;;;;;;;8.30;90.95;100217.00;5078359;28;20204;-66
2021/12/30 00:53:44;;;;;;;47.10;25.40;;;;;;;8.39;90.30;100214.50;5078466;28;20266;-66
2021/12/30 00:56:10;;;;;;;46.50;25.47;;;;;;;8.23;91.92;100216.06;5079114;28;20528;-66
2021/12/30 00:58:35;;;;;;;52.37;27.00;;;;;;;8.39;91.32;100223.16;5078565;28;20173;-66
2021/12/30 01:01:03;;;;;;;51.93;27.43;;;;;;;8.57;90.55;100227.69;5078126;28;20523;-68
2021/12/30 01:03:29;;;;;;;51.03;27.50;;;;;;;8.70;89.36;100233.88;5078735;28;20193;-67
2021/12/30 01:05:54;;;;;;;56.33;30.37;;;;;;;8.51;90.12;100232.84;5078280;28;20393;-66
2021/12/30 01:08:19;;;;;;;51.37;29.23;;;;;;;8.27;91.59;100243.81;5077444;28;20542;-66
2021/12/30 01:10:45;;;;;;;68.43;32.87;;;;;;;8.19;92.65;100240.25;5078745;28;20402;-66
2021/12/30 01:13:16;;;;;;;60.33;31.10;;;;;;;8.46;90.85;100259.59;5077878;28;20165;-66
2021/12/30 01:15:58;;;;;;;64.47;30.90;;;;;;;8.15;93.05;100260.13;5078139;28;20252;-66
2021/12/30 01:18:40;;;;;;;59.93;29.67;;;;;;;8.41;91.44;100257.78;5078151;28;20419;-66
2021/12/30 01:21:08;;;;;;;63.17;31.47;;;;;;;8.36;91.69;100266.41;5078194;28;20436;-67
2021/12/30 01:23:33;;;;;;;60.67;31.43;;;;;;;8.62;90.96;100269.31;5077659;28;20512;-67
2021/12/30 01:25:59;;;;;;;62.17;32.77;;;;;;;8.63;91.22;100268.44;5078014;28;20673;-67
2021/12/30 01:28:25;;;;;;;58.83;31.80;;;;;;;8.59;92.06;100287.44;5078563;28;20173;-67
2021/12/30 01:30:51;;;;;;;62.60;32.93;;;;;;;8.27;93.25;100286.22;5077863;28;20168;-67
2021/12/30 01:33:17;;;;;;;67.23;34.37;;;;;;;8.26;93.30;100299.19;5077766;28;20813;-67
2021/12/30 01:35:42;;;;;;;64.97;32.43;;;;;;;8.39;92.99;100310.59;5078609;28;20169;-66
2021/12/30 01:38:11;;;;;;;57.97;31.43;;;;;;;8.71;91.91;100311.00;5077954;28;20428;-66
2021/12/30 01:40:38;;;;;;;58.90;32.27;;;;;;;8.66;91.02;100311.78;5077747;28;20586;-66
2021/12/30 01:43:04;;;;;;;64.43;32.17;;;;;;;8.69;91.82;100310.09;5077395;28;20438;-67
2021/12/30 01:45:29;;;;;;;52.80;29.33;;;;;;;8.63;91.82;100307.41;5080043;28;20446;-66
2021/12/30 01:47:55;;;;;;;61.97;31.20;;;;;;;8.57;91.88;100315.16;5081832;28;20603;-66
2021/12/30 01:50:22;;;;;;;60.67;31.10;;;;;;;8.81;92.18;100321.47;5082201;28;20207;-66
2021/12/30 01:52:48;;;;;;;70.93;31.77;;;;;;;8.59;92.88;100321.22;5081345;28;20447;-67
2021/12/30 01:55:15;;;;;;;70.47;33.63;;;;;;;8.62;92.79;100317.78;5081744;28;20404;-66
2021/12/30 01:57:40;;;;;;;62.63;31.30;;;;;;;8.75;92.41;100323.16;5082318;28;20169;-66
2021/12/30 02:00:09;;;;;;;58.13;30.53;;;;;;;8.88;91.65;100328.47;5081661;28;20419;-66
2021/12/30 02:02:34;;;;;;;60.57;30.53;;;;;;;8.69;91.76;100320.50;5081474;28;20169;-66
2021/12/30 02:05:00;;;;;;;60.17;31.63;;;;;;;8.82;91.85;100331.00;5081896;28;20417;-66
2021/12/30 02:07:25;;;;;;;67.50;30.47;;;;;;;8.68;92.24;100330.88;5080541;28;20169;-66
2021/12/30 02:09:53;;;;;;;56.73;28.37;;;;;;;8.75;91.69;100336.16;5080479;28;20164;-67
2021/12/30 02:12:18;;;;;;;64.53;30.87;;;;;;;8.83;91.15;100345.75;5081729;28;20174;-67
2021/12/30 02:14:43;;;;;;;59.93;28.47;;;;;;;8.69;91.96;100356.88;5081449;28;20439;-66
2021/12/30 02:17:09;;;;;;;61.13;28.13;;;;;;;8.76;91.24;100363.88;5081101;28;20165;-66
2021/12/30 02:19:34;;;;;;;50.93;27.17;;;;;;;8.79;91.47;100362.16;5081849;28;20165;-69
2021/12/30 02:22:00;;;;;;;65.57;28.10;;;;;;;8.41;93.41;100382.47;5081695;28;20234;-68
2021/12/30 02:24:25;;;;;;;52.03;28.40;;;;;;;8.64;92.90;100366.34;5081340;28;20201;-67
2021/12/30 02:26:51;;;;;;;57.37;27.10;;;;;;;9.16;91.21;100359.94;5081959;28;20215;-68
2021/12/30 02:29:17;;;;;;;53.40;27.70;;;;;;;8.76;91.94;100378.59;5081288;28;20165;-66
2021/12/30 02:31:43;;;;;;;47.17;25.70;;;;;;;8.79;92.95;100368.22;5080337;28;20526;-66
2021/12/30 02:34:08;;;;;;;51.60;26.27;;;;;;;8.72;91.43;100367.28;5081434;28;20389;-66
2021/12/30 02:36:35;;;;;;;47.63;26.67;;;;;;;8.83;91.84;100376.94;5081101;28;20181;-66
2021/12/30 02:39:05;;;;;;;41.27;22.50;;;;;;;8.69;92.27;100372.47;5080609;28;20161;-66
2021/12/30 02:41:34;;;;;;;50.40;24.87;;;;;;;8.90;92.07;100365.75;5081445;28;20432;-66
2021/12/30 02:44:00;;;;;;;43.60;23.50;;;;;;;9.03;90.30;100372.81;5080546;28;20854;-66
2021/12/30 02:46:28;;;;;;;42.37;22.60;;;;;;;8.90;90.80;100383.94;5080906;28;20407;-66
2021/12/30 02:48:55;;;;;;;39.67;22.80;;;;;;;8.82;91.92;100394.28;5081446;28;20390;-65
2021/12/30 02:51:21;;;;;;;53.50;23.63;;;;;;;8.82;91.68;100414.19;5080847;28;20397;-66
2021/12/30 02:53:47;;;;;;;43.17;20.37;;;;;;;8.87;91.11;100417.72;5080513;28;20789;-67
2021/12/30 02:56:12;;;;;;;48.80;21.10;;;;;;;8.68;91.54;100414.03;5080041;28;20478;-66
2021/12/30 02:58:39;;;;;;;45.60;20.70;;;;;;;8.90;91.22;100418.63;5081065;28;20410;-68
2021/12/30 03:01:17;;;;;;;40.10;19.30;;;;;;;8.89;89.65;100436.78;5081566;28;20481;-68
2021/12/30 03:03:42;;;;;;;44.63;18.37;;;;;;;8.83;90.62;100442.78;5080189;28;20235;-66
2021/12/30 03:06:10;;;;;;;38.50;18.27;;;;;;;8.73;91.94;100444.41;5080290;28;20403;-66
2021/12/30 03:08:36;;;;;;;36.20;20.03;;;;;;;9.02;90.35;100443.00;5080756;28;20215;-67
2021/12/30 03:11:02;;;;;;;35.80;16.17;;;;;;;8.51;91.85;100464.06;5080299;28;20393;-67
2021/12/30 03:13:32;;;;;;;39.43;18.10;;;;;;;8.87;90.82;100464.50;5080116;28;20181;-66
2021/12/30 03:16:05;;;;;;;36.13;17.30;;;;;;;9.14;90.08;100468.28;5080642;28;20412;-66
2021/12/30 03:18:32;;;;;;;38.77;18.70;;;;;;;9.29;89.42;100464.97;5080142;28;20410;-66
2021/12/30 03:20:58;;;;;;;31.67;15.17;;;;;;;8.87;90.62;100472.31;5080116;28;20394;-66
2021/12/30 03:23:24;;;;;;;41.40;17.20;;;;;;;8.90;90.21;100459.34;5079893;28;20411;-66
2021/12/30 03:25:50;;;;;;;33.97;17.10;;;;;;;8.94;89.68;100466.31;5079837;28;20668;-67
2021/12/30 03:28:15;;;;;;;37.97;17.73;;;;;;;8.81;90.78;100462.72;5080388;28;20165;-66
2021/12/30 03:30:40;;;;;;;23.43;14.47;;;;;;;8.65;91.60;100476.38;5079900;28;20187;-67
2021/12/30 03:33:06;;;;;;;34.87;15.53;;;;;;;8.65;91.02;100463.38;5079687;28;20179;-66
2021/12/30 03:35:31;;;;;;;38.17;16.40;;;;;;;8.69;90.81;100470.34;5080307;28;20165;-66
2021/12/30 03:37:57;;;;;;;23.43;13.80;;;;;;;8.51;91.58;100477.06;5079845;28;20175;-67
2021/12/30 03:40:22;;;;;;;33.50;14.70;;;;;;;8.80;89.72;100476.56;5079907;28;20588;-66
2021/12/30 03:42:48;;;;;;;37.03;14.73;;;;;;;8.73;90.67;100480.78;5080013;28;20157;-66
2021/12/30 03:45:14;;;;;;;32.33;14.73;;;;;;;8.24;91.98;100472.28;5079608;28;20235;-66
2021/12/30 03:47:44;;;;;;;25.97;14.10;;;;;;;8.43;91.70;100474.31;5079803;28;20179;-67
2021/12/30 03:50:17;;;;;;;30.53;14.70;;;;;;;8.48;91.46;100469.19;5080194;28;20403;-66
2021/12/30 03:52:43;;;;;;;33.87;13.10;;;;;;;8.47;91.40;100477.88;5079166;28;20837;-67
2021/12/30 03:55:08;;;;;;;25.60;14.50;;;;;;;8.40;92.36;100489.84;5079416;28;20497;-66
2021/12/30 03:57:34;;;;;;;25.73;12.80;;;;;;;8.47;92.19;100484.75;5080071;28;20169;-66
2021/12/30 03:59:59;;;;;;;27.23;12.27;;;;;;;8.51;91.29;100496.94;5079257;28;20554;-66
2021/12/30 04:02:24;;;;;;;24.63;11.67;;;;;;;8.62;91.52;100497.97;5079085;28;20535;-67
2021/12/30 04:04:50;;;;;;;23.50;11.20;;;;;;;8.40;91.03;100492.44;5079864;28;20258;-67
2021/12/30 04:07:18;;;;;;;25.13;12.50;;;;;;;8.36;91.97;100485.47;5079105;28;20184;-67
2021/12/30 04:09:43;;;;;;;25.47;11.77;;;;;;;8.35;92.36;100486.31;5079223;28;20209;-67
2021/12/30 04:12:09;;;;;;;26.47;11.47;;;;;;;8.40;91.79;100489.84;5079506;28;20385;-66
2021/12/30 04:14:34;;;;;;;31.33;12.23;;;;;;;8.48;91.10;100499.50;5079135;28;20561;-66
2021/12/30 04:16:59;;;;;;;37.17;13.00;;;;;;;8.31;91.60;100500.09;5078401;28;20177;-66
2021/12/30 04:19:25;;;;;;;34.33;13.27;;;;;;;8.17;92.47;100506.81;5079419;28;20255;-66
2021/12/30 04:21:55;;;;;;;30.07;12.47;;;;;;;8.36;91.99;100503.66;5078834;28;20177;-66
2021/12/30 04:24:20;;;;;;;28.03;12.93;;;;;;;8.42;91.24;100490.72;5078925;28;20295;-66
2021/12/30 04:26:46;;;;;;;29.07;11.57;;;;;;;8.27;92.41;100472.34;5079418;28;20742;-66
2021/12/30 04:29:11;;;;;;;36.97;12.90;;;;;;;8.28;91.22;100468.91;5078587;28;20271;-66
2021/12/30 04:31:37;;;;;;;27.57;12.57;;;;;;;8.36;91.05;100477.69;5078623;28;20254;-67
2021/12/30 04:34:02;;;;;;;32.33;15.70;;;;;;;8.31;91.06;100476.72;5078955;28;20179;-66
2021/12/30 04:36:30;;;;;;;40.47;11.90;;;;;;;8.29;91.06;100470.63;5078632;28;20172;-66
2021/12/30 04:38:56;;;;;;;25.40;12.90;;;;;;;8.18;91.21;100480.00;5078524;28;20187;-66
2021/12/30 04:41:21;;;;;;;30.20;12.43;;;;;;;8.16;91.86;100474.78;5079017;28;20381;-67
2021/12/30 04:43:46;;;;;;;32.70;12.23;;;;;;;8.31;91.06;100475.84;5078205;28;20193;-66
2021/12/30 04:46:13;;;;;;;25.97;15.17;;;;;;;8.36;90.40;100471.59;5079295;28;20421;-65
2021/12/30 04:48:38;;;;;;;32.93;14.37;;;;;;;8.13;91.56;100474.72;5078917;28;20410;-67
2021/12/30 04:51:03;;;;;;;36.40;14.57;;;;;;;8.47;89.82;100474.38;5078416;28;20390;-66
2021/12/30 04:53:28;;;;;;;30.37;13.47;;;;;;;8.13;90.75;100481.63;5078156;28;20235;-66
2021/12/30 04:55:54;;;;;;;33.70;13.30;;;;;;;8.47;89.73;100479.56;5078969;28;20185;-66
2021/12/30 04:58:19;;;;;;;33.80;15.47;;;;;;;8.23;90.97;100467.97;5078400;28;20176;-67
2021/12/30 05:00:45;;;;;;;37.03;14.73;;;;;;;8.27;90.94;100482.72;5078569;28;20204;-66
2021/12/30 05:03:12;;;;;;;30.60;14.00;;;;;;;8.23;90.97;100486.13;5078698;28;20181;-66
2021/12/30 05:05:43;;;;;;;46.33;18.20;;;;;;;8.35;90.92;100485.41;5079500;28;20216;-66
2021/12/30 05:08:09;;;;;;;39.17;15.30;;;;;;;8.37;91.27;100478.53;5079278;28;20493;-66
2021/12/30 05:10:35;;;;;;;35.63;16.33;;;;;;;8.21;91.05;100460.16;5079166;28;20468;-66
2021/12/30 05:13:02;;;;;;;46.90;16.37;;;;;;;8.40;91.68;100460.38;5078036;28;20711;-66
2021/12/30 05:15:28;;;;;;;33.97;14.50;;;;;;;8.54;90.17;100465.84;5078313;28;20192;-65
2021/12/30 05:17:53;;;;;;;45.10;17.10;;;;;;;8.40;90.26;100474.28;5078522;28;20429;-66
2021/12/30 05:20:19;;;;;;;45.23;16.83;;;;;;;8.26;91.55;100470.59;5077010;28;20251;-66
2021/12/30 05:22:44;;;;;;;41.87;16.40;;;;;;;8.28;91.92;100468.91;5077912;28;20434;-66
2021/12/30 05:25:11;;;;;;;38.90;16.07;;;;;;;8.41;91.68;100481.19;5078609;28;20196;-65
2021/12/30 05:27:36;;;;;;;52.30;16.27;;;;;;;8.22;92.68;100502.56;5078315;28;20208;-66
2021/12/30 05:30:03;;;;;;;39.70;16.70;;;;;;;8.36;91.91;100508.84;5078194;28;20416;-67
2021/12/30 05:32:29;;;;;;;41.90;18.93;;;;;;;8.27;92.60;100517.34;5078251;28;20491;-66
2021/12/30 05:34:54;;;;;;;46.90;17.10;;;;;;;8.37;92.12;100509.72;5078234;28;20502;-68
2021/12/30 05:37:19;;;;;;;49.10;18.40;;;;;;;8.48;91.67;100512.50;5077990;28;20203;-68
2021/12/30 05:39:45;;;;;;;54.50;18.43;;;;;;;8.59;90.75;100527.41;5078599;28;20200;-66
2021/12/30 05:42:10;;;;;;;42.57;16.67;;;;;;;8.52;91.05;100511.69;5077696;28;20177;-67
2021/12/30 05:44:35;;;;;;;42.97;19.80;;;;;;;8.50;91.67;100505.63;5077876;28;20265;-66
2021/12/30 05:47:01;;;;;;;56.20;20.10;;;;;;;8.46;91.48;100494.28;5078412;28;20169;-67
2021/12/30 05:49:26;;;;;;;43.77;18.43;;;;;;;8.41;92.22;100512.34;5077749;28;20173;-66
2021/12/30 05:51:51;;;;;;;40.33;19.53;;;;;;;8.55;91.53;100519.50;5078035;28;20183;-67
2021/12/30 05:54:16;;;;;;;41.47;18.10;;;;;;;8.30;92.36;100524.31;5077533;28;20239;-66
2021/12/30 05:56:42;;;;;;;41.20;16.30;;;;;;;8.38;92.33;100532.25;5077903;28;20177;-68
2021/12/30 05:59:07;;;;;;;58.80;19.20;;;;;;;8.42;92.36;100534.03;5078182;28;20514;-66
2021/12/30 06:01:32;;;;;;;42.60;18.20;;;;;;;8.38;92.07;100542.63;5077793;28;20222;-66
2021/12/30 06:03:58;;;;;;;40.53;17.70;;;;;;;8.34;92.27;100551.22;5077656;28;20205;-67
2021/12/30 06:06:24;;;;;;;49.67;19.20;;;;;;;8.57;91.56;100546.41;5078122;28;20449;-66
2021/12/30 06:08:50;;;;;;;46.77;18.53;;;;;;;8.69;90.65;100551.78;5077743;28;20169;-66
2021/12/30 06:11:16;;;;;;;56.70;19.60;;;;;;;8.34;92.51;100552.09;5077624;28;20412;-66
2021/12/30 06:13:41;;;;;;;45.73;20.80;;;;;;;8.51;91.61;100543.72;5077834;28;20385;-66
2021/12/30 06:16:06;;;;;;;44.20;19.50;;;;;;;8.96;89.89;100540.03;5077599;28;20230;-66
2021/12/30 06:18:32;;;;;;;56.93;20.37;;;;;;;8.58;91.48;100540.38;5077923;28;20169;-66
2021/12/30 06:20:57;;;;;;;43.13;20.40;;;;;;;8.61;90.94;100529.16;5078213;28;20181;-66
2021/12/30 06:23:22;;;;;;;46.33;21.30;;;;;;;8.77;90.55;100537.16;5077328;28;20179;-67
2021/12/30 06:25:47;;;;;;;46.30;22.60;;;;;;;8.80;90.42;100532.88;5077535;28;20441;-66
2021/12/30 06:28:13;;;;;;;54.23;21.60;;;;;;;8.90;89.84;100535.63;5078110;28;20252;-66
2021/12/30 06:30:38;;;;;;;54.03;21.80;;;;;;;8.71;89.78;100518.91;5078049;28;20181;-67
2021/12/30 06:33:04;;;;;;;54.60;21.80;;;;;;;8.73;90.44;100522.38;5080214;28;20530;-67
2021/12/30 06:35:32;;;;;;;52.70;21.50;;;;;;;8.62;90.91;100536.97;5081572;28;20577;-66
2021/12/30 06:37:57;;;;;;;57.77;21.83;;;;;;;8.74;91.19;100552.72;5081061;28;20199;-66
2021/12/30 06:40:22;;;;;;;57.37;23.77;;;;;;;8.85;90.61;100532.06;5081060;28;20408;-67
2021/12/30 06:42:48;;;;;;;44.47;21.77;;;;;;;8.80;90.60;100538.06;5081190;28;20169;-66
2021/12/30 06:45:13;;;;;;;59.83;24.10;;;;;;;8.99;89.77;100545.25;5081007;28;20276;-69
2021/12/30 06:47:39;;;;;;;60.27;22.70;;;;;;;8.58;91.26;100574.16;5080358;28;20184;-67
2021/12/30 06:50:04;;;;;;;53.47;23.00;;;;;;;8.71;91.75;100570.88;5080814;28;20222;-67
2021/12/30 06:52:30;;;;;;;54.73;25.93;;;;;;;8.84;90.99;100569.31;5081238;28;20491;-66
2021/12/30 06:54:56;;;;;;;56.27;25.53;;;;;;;8.89;90.49;100567.66;5081951;28;20192;-66
2021/12/30 06:57:21;;;;;;;56.90;22.53;;;;;;;8.83;90.72;100556.31;5080765;28;20426;-67
2021/12/30 06:59:47;;;;;;;47.63;23.47;;;;;;;9.07;89.38;100546.22;5080691;28;20218;-67
2021/12/30 07:02:13;;;;;;;65.30;25.93;;;;;;;9.22;88.94;100535.13;5080646;28;20242;-66
2021/12/30 07:04:38;;;;;;;56.90;24.83;;;;;;;8.99;89.45;100539.19;5081341;28;20432;-66
2021/12/30 07:07:04;;;;;;;48.97;23.60;;;;;;;9.14;89.18;100546.31;5080788;28;20390;-67
2021/12/30 07:09:30;;;;;;;53.37;25.50;;;;;;;9.07;88.75;100540.16;5079972;28;20204;-66
2021/12/30 07:11:56;;;;;;;60.47;24.03;;;;;;;9.04;89.78;100537.53;5080824;28;20172;-67
2021/12/30 07:14:22;;;;;;;55.77;23.33;;;;;;;9.16;88.44;100544.59;5080121;28;20184;-67
2021/12/30 07:16:47;;;;;;;60.60;23.67;;;;;;;9.23;89.04;100541.22;5080498;28;20173;-67
2021/12/30 07:19:13;;;;;;;46.57;22.20;;;;;;;9.17;88.93;100546.34;5080010;28;20410;-66
2021/12/30 07:21:39;;;;;;;54.33;24.77;;;;;;;9.17;88.82;100551.53;5079710;28;20791;-66
2021/12/30 07:24:05;;;;;;;48.33;25.03;;;;;;;9.33;87.90;100556.06;5080077;28;20250;-66
2021/12/30 07:26:30;;;;;;;47.27;23.80;;;;;;;9.20;87.78;100561.97;5079627;28;20263;-67
2021/12/30 07:28:55;;;;;;;75.67;25.23;;;;;;;9.51;87.11;100584.03;5079978;28;20169;-66
2021/12/30 07:31:21;;;;;;;61.43;24.27;;;;;;;9.18;88.80;100584.50;5079991;28;20173;-66
2021/12/30 07:33:46;;;;;;;49.37;23.87;;;;;;;8.98;89.09;100582.50;5080246;28;20214;-66
2021/12/30 07:36:11;;;;;;;49.07;27.07;;;;;;;9.02;89.58;100563.47;5079866;28;20222;-66
2021/12/30 07:38:37;;;;;;;55.97;24.47;;;;;;;9.10;88.79;100553.19;5079799;28;20437;-66
2021/12/30 07:41:04;;;;;;;51.27;24.43;;;;;;;9.42;87.78;100571.78;5080072;28;20239;-67
2021/12/30 07:43:29;;;;;;;46.73;24.80;;;;;;;9.31;88.10;100567.31;5079042;28;20188;-66
2021/12/30 07:45:54;;;;;;;61.33;24.73;;;;;;;9.14;89.39;100574.91;5079779;28;20390;-66
2021/12/30 07:48:20;;;;;;;49.93;22.93;;;;;;;9.24;88.62;100568.97;5080182;28;20519;-67
2021/12/30 07:50:45;;;;;;;64.77;25.13;;;;;;;9.38;88.40;100572.59;5079555;28;20251;-66
2021/12/30 07:53:10;;;;;;;51.10;24.40;;;;;;;9.29;88.48;100567.28;5079136;28;20233;-67
2021/12/30 07:55:36;;;;;;;57.50;23.77;;;;;;;9.36;88.50;100565.63;5080036;28;20189;-66
2021/12/30 07:58:01;;;;;;;48.87;24.17;;;;;;;9.58;87.87;100569.38;5079562;28;20223;-66
2021/12/30 08:00:26;;;;;;;61.43;24.70;;;;;;;9.37;88.22;100570.84;5079288;28;20197;-66
2021/12/30 08:02:52;;;;;;;58.40;24.37;;;;;;;9.47;87.76;100576.16;5079370;28;20215;-66
2021/12/30 08:05:19;;;;;;;49.97;25.00;;;;;;;9.54;87.98;100572.78;5079232;28;20197;-66
2021/12/30 08:07:46;;;;;;;47.70;23.90;;;;;;;9.40;88.29;100578.72;5079328;28;20172;-67
2021/12/30 08:10:14;;;;;;;55.60;24.43;;;;;;;9.49;88.99;100569.28;5080096;28;20389;-67
2021/12/30 08:12:40;;;;;;;62.63;24.67;;;;;;;9.59;88.04;100581.50;5078806;28;20862;-66
2021/12/30 08:15:07;;;;;;;56.90;25.27;;;;;;;9.54;88.38;100572.78;5078973;28;20431;-66
2021/12/30 08:17:33;;;;;;;65.80;28.00;;;;;;;9.50;88.03;100568.38;5079480;28;20462;-66
2021/12/30 08:19:58;;;;;;;68.57;25.57;;;;;;;9.80;87.12;100574.81;5078170;28;20519;-66
2021/12/30 08:22:23;;;;;;;54.33;27.80;;;;;;;9.40;88.85;100580.44;5078653;28;20434;-66
2021/12/30 08:24:49;;;;;;;54.23;26.60;;;;;;;9.82;87.48;100575.69;5078071;28;20224;-66
2021/12/30 08:27:14;;;;;;;49.53;25.93;;;;;;;9.78;88.11;100570.44;5078776;28;20571;-66
2021/12/30 08:29:43;;;;;;;70.03;27.57;;;;;;;9.99;86.64;100581.06;5078617;28;20192;-66
2021/12/30 08:32:11;;;;;;;52.13;26.23;;;;;;;10.09;85.95;100588.09;5079026;28;20168;-66
2021/12/30 08:34:37;;;;;;;64.70;26.93;;;;;;;9.79;87.44;100594.75;5078679;28;20421;-66
2021/12/30 08:37:02;;;;;;;58.03;25.70;;;;;;;9.63;88.09;100601.50;5078788;28;20419;-66
2021/12/30 08:39:28;;;;;;;55.53;27.97;;;;;;;9.64;88.80;100607.59;5079417;28;20172;-67
2021/12/30 08:41:56;;;;;;;66.53;27.67;;;;;;;10.23;86.57;100596.03;5078735;28;20180;-66
2021/12/30 08:44:21;;;;;;;60.57;27.70;;;;;;;10.26;85.54;100590.84;5078371;28;20299;-66
2021/12/30 08:46:46;;;;;;;56.77;25.80;;;;;;;10.21;86.18;100596.00;5081271;28;20394;-66
2021/12/30 08:49:12;;;;;;;55.80;28.77;;;;;;;10.15;86.81;100603.78;5084460;28;20569;-66
2021/12/30 08:51:39;;;;;;;54.53;24.43;;;;;;;10.33;85.81;100607.41;5078339;28;20173;-68
2021/12/30 08:54:04;;;;;;;58.10;28.27;;;;;;;10.01;87.46;100606.25;5077535;28;20238;-68
2021/12/30 08:56:30;;;;;;;72.23;27.73;;;;;;;10.12;87.14;100603.75;5078516;28;20791;-67
2021/12/30 08:58:55;;;;;;;59.53;27.47;;;;;;;10.31;86.60;100596.09;5078753;28;20173;-67
2021/12/30 09:01:21;;;;;;;64.40;26.90;;;;;;;10.16;87.42;100587.31;5078209;28;20185;-67
2021/12/30 09:03:46;;;;;;;59.57;25.70;;;;;;;10.25;86.70;100605.59;5078021;28;20215;-66
2021/12/30 09:06:11;;;;;;;63.37;26.63;;;;;;;10.11;87.24;100602.88;5078706;28;20180;-67
2021/12/30 09:08:36;;;;;;;55.93;27.63;;;;;;;9.90;88.55;100606.16;5078360;28;20485;-66
2021/12/30 09:11:02;;;;;;;58.87;27.70;;;;;;;10.11;88.79;100602.00;5078167;28;20218;-67
2021/12/30 09:13:27;;;;;;;65.57;27.97;;;;;;;10.03;88.93;100601.94;5078377;28;20431;-67
2021/12/30 09:15:53;;;;;;;66.77;27.63;;;;;;;10.02;88.99;100594.97;5079269;28;20248;-67
2021/12/30 09:18:18;;;;;;;64.50;28.80;;;;;;;10.04;89.47;100601.06;5079769;28;20165;-67
2021/12/30 09:20:43;;;;;;;64.90;28.10;;;;;;;10.18;88.76;100585.56;5078950;28;20400;-66
2021/12/30 09:23:11;;;;;;;68.03;29.40;;;;;;;10.18;88.96;100587.31;5077166;28;20594;-66
2021/12/30 09:25:38;;;;;;;80.50;30.30;;;;;;;10.41;88.42;100580.56;5078176;28;20236;-66
2021/12/30 09:28:04;;;;;;;79.33;29.00;;;;;;;10.22;89.14;100584.72;5078468;28;20408;-67
2021/12/30 09:30:30;;;;;;;74.23;31.53;;;;;;;10.31;89.02;100593.47;5078347;28;20828;-67
2021/12/30 09:32:58;;;;;;;74.73;31.73;;;;;;;10.41;89.03;100582.31;5077876;28;20489;-66
2021/12/30 09:35:23;;;;;;;69.17;29.50;;;;;;;10.54;88.30;100580.66;5078417;28;20399;-67
2021/12/30 09:37:49;;;;;;;77.13;30.83;;;;;;;10.48;88.86;100575.41;5077845;28;20419;-66
2021/12/30 09:40:15;;;;;;;77.63;32.20;;;;;;;10.53;88.61;100576.34;5077841;28;20226;-67
2021/12/30 09:42:45;;;;;;;70.27;31.03;;;;;;;10.25;89.78;100581.28;5077994;28;20230;-66
2021/12/30 09:45:11;;;;;;;72.20;29.60;;;;;;;10.50;88.69;100568.47;5077746;28;20491;-66
2021/12/30 09:47:43;;;;;;;89.43;29.90;;;;;;;10.33;90.15;100561.38;5077792;28;20419;-67
2021/12/30 09:50:08;;;;;;;72.53;30.30;;;;;;;10.55;89.53;100565.06;5077790;28;20419;-66
2021/12/30 09:52:33;;;;;;;64.10;31.70;;;;;;;10.39;90.36;100577.09;5077587;28;20522;-66
2021/12/30 09:54:59;;;;;;;72.30;30.53;;;;;;;10.37;90.29;100563.16;5078046;28;20189;-66
2021/12/30 09:57:24;;;;;;;76.63;30.23;;;;;;;10.65;88.99;100560.78;5077775;28;20216;-66
2021/12/30 09:59:49;;;;;;;70.20;30.43;;;;;;;10.74;89.13;100555.63;5077537;28;20527;-68
2021/12/30 10:02:15;;;;;;;69.33;30.47;;;;;;;10.84;88.47;100559.13;5078137;28;20164;-68
2021/12/30 10:04:40;;;;;;;77.50;29.97;;;;;;;10.65;89.07;100562.47;5077479;28;20259;-66
2021/12/30 10:07:18;;;;;;;58.50;28.10;;;;;;;10.61;89.93;100566.84;5080754;28;20169;-67
2021/12/30 10:09:50;;;;;;;58.70;27.90;;;;;;;10.56;90.25;100560.72;5081561;28;20173;-68
2021/12/30 10:12:32;;;;;;;57.37;25.60;;;;;;;10.60;91.39;100562.47;5081468;28;20812;-67
2021/12/30 10:14:57;;;;;;;46.80;22.90;;;;;;;10.54;91.40;100559.81;5081312;28;20412;-67
2021/12/30 10:17:26;;;;;;;46.53;22.90;;;;;;;10.31;91.82;100560.50;5081113;28;20393;-66
2021/12/30 10:19:53;;;;;;;53.90;23.20;;;;;;;10.33;92.14;100561.38;5081114;28;20173;-66
2021/12/30 10:22:22;;;;;;;42.37;21.03;;;;;;;10.50;91.52;100558.03;5081177;28;20471;-67
2021/12/30 10:24:48;;;;;;;52.47;23.83;;;;;;;10.71;90.47;100552.13;5081644;28;20446;-67
2021/12/30 10:27:28;;;;;;;43.00;22.97;;;;;;;10.66;90.91;100549.44;5081024;28;20678;-67
2021/12/30 10:29:55;;;;;;;45.50;20.37;;;;;;;10.78;89.96;100546.94;5081069;28;20713;-67
2021/12/30 10:32:28;;;;;;;45.00;21.97;;;;;;;10.58;91.58;100540.72;5080970;28;20685;-66
2021/12/30 10:35:14;;;;;;;46.40;21.17;;;;;;;10.97;89.77;100533.97;5080932;28;20801;-67
2021/12/30 10:37:44;;;;;;;42.30;19.97;;;;;;;10.49;92.12;100536.34;5080860;28;20407;-66
2021/12/30 10:40:29;;;;;;;33.40;18.43;;;;;;;10.96;90.29;100521.84;5080946;28;20857;-67
2021/12/30 10:43:23;;;;;;;32.47;19.53;;;;;;;11.02;89.90;100527.06;5080732;28;20406;-66
2021/12/30 10:46:09;;;;;;;44.80;21.23;;;;;;;10.96;90.33;100524.44;5080817;28;20448;-67
2021/12/30 10:48:47;;;;;;;30.40;18.97;;;;;;;10.82;91.53;100516.53;5080684;28;20541;-68
2021/12/30 10:51:16;;;;;;;37.60;18.90;;;;;;;10.91;90.89;100518.31;5080777;28;20793;-67
2021/12/30 10:53:41;;;;;;;30.00;18.37;;;;;;;10.81;91.17;100520.03;5080368;28;20480;-66
2021/12/30 10:56:28;;;;;;;29.00;17.50;;;;;;;10.75;91.77;100528.66;5080583;28;20476;-66
2021/12/30 10:58:55;;;;;;;30.57;16.83;;;;;;;10.81;92.48;100532.16;5080772;28;20177;-67
2021/12/30 11:01:22;;;;;;;27.40;16.23;;;;;;;10.93;92.06;100527.00;5079870;28;20420;-66
2021/12/30 11:03:54;;;;;;;25.33;16.03;;;;;;;10.73;93.26;100524.28;5083002;28;20745;-67
2021/12/30 11:06:20;;;;;;;30.37;16.33;;;;;;;11.15;91.33;100522.78;5081496;28;20417;-67
2021/12/30 11:08:47;;;;;;;22.33;14.33;;;;;;;10.74;92.93;100521.72;5083297;28;20485;-67
2021/12/30 11:11:27;;;;;;;22.50;14.30;;;;;;;11.10;91.61;100514.91;5080721;28;20429;-67